Time;durP1;ratioP1;P1;durP2;ratioP2;P2;SDS_P1;SDS_P2;PMS_P1;PMS_P2;Temp;Humidity;BMP_temperature;BMP_pressure;BME280_temperature;BME280_humidity;BME280_pressure;Samples;Min_cycle;Max_cycle;Signal;HPM_P1;HPM_P2
2021/07/04 00:01:42;;;;;;;16.73;4.05;;;16.40;99.90;;;;;;4832368;29;20847;-85
2021/07/04 00:04:12;;;;;;;9.32;3.97;;;16.40;99.90;;;;;;4846811;29;20145;-85
2021/07/04 00:06:40;;;;;;;9.88;4.20;;;16.40;99.90;;;;;;4847916;29;20045;-85
2021/07/04 00:09:12;;;;;;;15.90;4.80;;;16.40;99.90;;;;;;4855758;29;20065;-84
2021/07/04 00:11:41;;;;;;;9.48;4.57;;;16.40;99.90;;;;;;4840349;29;20409;-84
2021/07/04 00:14:13;;;;;;;9.57;3.83;;;16.40;99.90;;;;;;4858231;29;20057;-84
2021/07/04 00:16:42;;;;;;;12.47;3.90;;;16.30;99.90;;;;;;4839769;29;20046;-85
2021/07/04 00:19:11;;;;;;;7.32;3.80;;;16.30;99.90;;;;;;4854666;29;20502;-85
2021/07/04 00:21:39;;;;;;;15.80;4.60;;;16.30;99.90;;;;;;4860409;29;20410;-84
2021/07/04 00:24:08;;;;;;;12.48;5.28;;;16.20;99.90;;;;;;4850214;29;20065;-85
2021/07/04 00:26:37;;;;;;;12.48;6.05;;;16.20;99.90;;;;;;4853646;29;20054;-85
2021/07/04 00:29:06;;;;;;;10.57;4.50;;;16.20;99.90;;;;;;4853435;29;20045;-84
2021/07/04 00:31:36;;;;;;;14.48;5.18;;;16.20;99.90;;;;;;4829998;29;20058;-85
2021/07/04 00:34:05;;;;;;;13.73;3.67;;;16.00;99.90;;;;;;4857908;29;20046;-87
2021/07/04 00:36:34;;;;;;;12.60;4.50;;;16.10;99.90;;;;;;4859155;29;20066;-85
2021/07/04 00:39:05;;;;;;;11.45;4.25;;;16.20;99.90;;;;;;4836726;29;20514;-86
2021/07/04 00:41:36;;;;;;;10.57;4.05;;;16.10;99.90;;;;;;4837331;29;20061;-86
2021/07/04 00:44:18;;;;;;;14.02;6.30;;;16.10;99.90;;;;;;4849480;29;20053;-85
2021/07/04 00:46:48;;;;;;;9.45;4.03;;;16.10;99.90;;;;;;4832221;29;20619;-85
2021/07/04 00:49:16;;;;;;;12.38;5.07;;;16.20;99.90;;;;;;4848399;29;20049;-85
2021/07/04 00:52:01;;;;;;;15.93;4.88;;;16.20;99.90;;;;;;4834166;29;20057;-85
2021/07/04 00:54:30;;;;;;;;;;;16.40;99.90;;;;;;4854324;29;20057;-86
2021/07/04 00:56:58;;;;;;;14.13;4.97;;;16.20;99.90;;;;;;4853892;29;19928;-82
2021/07/04 00:59:32;;;;;;;14.73;5.65;;;16.20;99.90;;;;;;4856410;29;20050;-88
2021/07/04 01:02:04;;;;;;;14.50;6.80;;;16.20;99.90;;;;;;4823114;29;20062;-87
2021/07/04 01:04:37;;;;;;;11.82;5.40;;;16.30;99.90;;;;;;4855489;29;20032;-83
2021/07/04 01:07:10;;;;;;;10.13;5.10;;;16.30;99.90;;;;;;4848890;29;20048;-88
2021/07/04 01:09:45;;;;;;;9.43;4.55;;;16.30;99.90;;;;;;4869348;29;20339;-86
2021/07/04 01:12:14;;;;;;;12.13;4.75;;;16.30;99.90;;;;;;4850839;29;20053;-84
2021/07/04 01:14:44;;;;;;;13.02;5.25;;;16.40;99.90;;;;;;4839472;29;20068;-85
2021/07/04 01:17:13;;;;;;;11.38;5.30;;;16.40;99.90;;;;;;4853553;29;20058;-87
2021/07/04 01:19:42;;;;;;;14.02;5.03;;;16.40;99.90;;;;;;4852838;29;20054;-86
2021/07/04 01:22:15;;;;;;;17.75;5.68;;;16.40;99.90;;;;;;4849631;29;20061;-84
2021/07/04 01:24:47;;;;;;;12.27;5.40;;;16.40;99.90;;;;;;4853395;29;20054;-84
2021/07/04 01:27:31;;;;;;;14.02;6.07;;;16.40;99.90;;;;;;4835536;29;20054;-85
2021/07/04 01:30:01;;;;;;;;;;;16.40;99.90;;;;;;4851646;29;20062;-86
2021/07/04 01:32:29;;;;;;;15.93;4.47;;;16.40;99.90;;;;;;4871846;29;19928;-84
2021/07/04 01:35:13;;;;;;;13.57;5.95;;;16.40;99.90;;;;;;4854777;29;20046;-86
2021/07/04 01:37:52;;;;;;;8.95;5.22;;;16.30;99.90;;;;;;4855543;29;20049;-87
2021/07/04 01:40:34;;;;;;;11.20;5.10;;;16.80;99.90;;;;;;4852331;29;20058;-84
2021/07/04 01:43:21;;;;;;;14.07;5.15;;;16.30;99.90;;;;;;4852810;29;20065;-84
2021/07/04 01:45:51;;;;;;;12.25;4.75;;;16.30;99.90;;;;;;4836426;29;20498;-86
2021/07/04 01:48:20;;;;;;;11.17;5.57;;;16.30;99.90;;;;;;4817716;29;20051;-85
2021/07/04 01:50:52;;;;;;;19.13;6.18;;;16.20;99.90;;;;;;4835332;29;20054;-84
2021/07/04 01:53:30;;;;;;;16.42;6.10;;;16.20;99.90;;;;;;4839573;29;20491;-87
2021/07/04 01:56:10;;;;;;;15.95;6.57;;;16.20;99.90;;;;;;4847000;29;20060;-85
2021/07/04 01:58:46;;;;;;;20.02;6.32;;;16.10;99.90;;;;;;4835196;29;20070;-83
2021/07/04 02:01:23;;;;;;;17.75;5.43;;;16.10;99.90;;;;;;4842673;29;20057;-87
2021/07/04 02:03:52;;;;;;;15.82;6.38;;;16.10;99.90;;;;;;4827380;29;20046;-84
2021/07/04 02:06:21;;;;;;;12.77;7.15;;;16.10;99.90;;;;;;4847619;29;20566;-83
2021/07/04 02:08:51;;;;;;;12.27;5.32;;;16.10;99.90;;;;;;4836944;29;20050;-87
2021/07/04 02:11:25;;;;;;;14.73;6.68;;;16.10;99.90;;;;;;4840146;29;20050;-85
2021/07/04 02:13:58;;;;;;;13.57;6.35;;;16.10;99.90;;;;;;4839963;29;20406;-84
2021/07/04 02:16:39;;;;;;;16.25;8.40;;;16.10;99.90;;;;;;4839347;29;20065;-85
2021/07/04 02:19:41;;;;;;;17.38;6.88;;;16.10;99.90;;;;;;4816584;29;20069;-84
2021/07/04 02:22:36;;;;;;;13.77;5.75;;;16.10;99.90;;;;;;4842955;29;20061;-82
2021/07/04 02:25:15;;;;;;;17.55;6.65;;;16.20;99.90;;;;;;4831760;29;20053;-85
2021/07/04 02:27:47;;;;;;;;;;;16.20;99.90;;;;;;4849114;29;20046;-84
2021/07/04 02:30:33;;;;;;;14.57;6.10;;;16.20;99.90;;;;;;4853734;29;19924;-84
2021/07/04 02:33:06;;;;;;;9.10;5.47;;;16.20;99.90;;;;;;4843212;29;20061;-85
2021/07/04 02:35:50;;;;;;;11.15;5.15;;;16.20;99.90;;;;;;4820695;29;20054;-86
2021/07/04 02:38:20;;;;;;;12.35;5.43;;;16.30;99.90;;;;;;4807932;29;20062;-88
2021/07/04 02:40:53;;;;;;;18.30;7.53;;;16.30;99.90;;;;;;4839727;29;20054;-87
2021/07/04 02:43:24;;;;;;;11.18;6.28;;;16.30;99.90;;;;;;4824402;29;20054;-86
2021/07/04 02:45:59;;;;;;;21.45;7.55;;;16.30;99.90;;;;;;4851791;29;20058;-87
2021/07/04 02:48:28;;;;;;;11.43;6.25;;;16.30;99.90;;;;;;4857094;29;20057;-86
2021/07/04 02:50:58;;;;;;;18.23;7.07;;;15.70;99.90;;;;;;4825222;29;20084;-89
2021/07/04 02:53:29;;;;;;;16.42;5.93;;;16.40;99.90;;;;;;4841064;29;20050;-88
2021/07/04 02:56:04;;;;;;;16.67;6.68;;;17.00;99.90;;;;;;4841501;29;20050;-88
2021/07/04 02:58:36;;;;;;;16.33;6.68;;;16.40;99.90;;;;;;4855160;29;20038;-85
2021/07/04 03:01:05;;;;;;;16.10;5.72;;;16.50;99.90;;;;;;4842874;29;20057;-89
2021/07/04 03:03:36;;;;;;;11.50;7.15;;;16.50;99.90;;;;;;4841967;29;20049;-85
2021/07/04 03:06:05;;;;;;;13.60;6.57;;;16.50;99.90;;;;;;4835413;29;20066;-84
2021/07/04 03:08:35;;;;;;;18.35;6.00;;;16.50;99.90;;;;;;4840717;29;20070;-86
2021/07/04 03:11:03;;;;;;;15.45;6.63;;;16.50;99.90;;;;;;4826579;29;20057;-85
2021/07/04 03:13:36;;;;;;;13.52;7.25;;;16.60;99.90;;;;;;4856684;29;20050;-83
2021/07/04 03:16:05;;;;;;;12.23;5.43;;;16.60;99.90;;;;;;4841642;29;20054;-85
2021/07/04 03:18:35;;;;;;;15.02;5.57;;;16.60;99.90;;;;;;4840344;29;20062;-86
2021/07/04 03:21:04;;;;;;;17.40;5.53;;;16.60;99.90;;;;;;4842635;29;20054;-85
2021/07/04 03:23:33;;;;;;;15.00;6.07;;;16.50;99.90;;;;;;4841317;29;20054;-86
2021/07/04 03:26:06;;;;;;;22.45;5.53;;;16.50;99.90;;;;;;4823520;29;20058;-85
2021/07/04 03:28:34;;;;;;;15.68;6.28;;;16.90;99.90;;;;;;4828580;29;20150;-84
2021/07/04 03:31:13;;;;;;;12.70;5.30;;;16.50;99.90;;;;;;4846123;29;20062;-84
2021/07/04 03:33:42;;;;;;;16.38;6.07;;;16.50;99.90;;;;;;4842835;29;20054;-85
2021/07/04 03:36:10;;;;;;;20.27;5.03;;;16.50;99.90;;;;;;4857421;29;20557;-86
2021/07/04 03:38:41;;;;;;;16.60;6.45;;;16.60;99.90;;;;;;4842912;29;20050;-87
2021/07/04 03:41:12;;;;;;;15.02;5.32;;;16.60;99.90;;;;;;4840484;29;20057;-85
2021/07/04 03:43:43;;;;;;;10.15;4.47;;;16.60;99.90;;;;;;4843145;29;20509;-86
2021/07/04 03:46:12;;;;;;;18.13;6.03;;;16.60;99.90;;;;;;4822204;29;20058;-87
2021/07/04 03:48:44;;;;;;;22.90;5.45;;;16.60;99.90;;;;;;4826846;29;20050;-86
2021/07/04 03:51:21;;;;;;;17.65;6.43;;;16.70;99.90;;;;;;4822149;29;20065;-86
2021/07/04 03:53:50;;;;;;;26.20;7.63;;;16.70;99.90;;;;;;4824061;29;20392;-85
2021/07/04 03:56:21;;;;;;;16.17;6.10;;;16.60;99.90;;;;;;4851878;29;20058;-85
2021/07/04 03:58:54;;;;;;;17.23;6.18;;;16.70;99.90;;;;;;4827213;29;20055;-84
2021/07/04 04:01:25;;;;;;;14.27;5.97;;;16.60;99.90;;;;;;4855172;29;20054;-85
2021/07/04 04:03:59;;;;;;;12.48;5.95;;;16.60;99.90;;;;;;4843984;29;20050;-84
2021/07/04 04:06:33;;;;;;;16.55;6.22;;;16.60;99.90;;;;;;4843117;29;20375;-83
2021/07/04 04:09:10;;;;;;;20.60;7.22;;;16.60;99.90;;;;;;4825375;29;20057;-86
2021/07/04 04:11:46;;;;;;;13.55;6.22;;;16.60;99.90;;;;;;4843523;29;20053;-84
2021/07/04 04:14:19;;;;;;;17.45;6.13;;;16.60;99.90;;;;;;4841175;29;20061;-86
2021/07/04 04:16:48;;;;;;;20.92;7.10;;;16.60;99.90;;;;;;4839326;29;20510;-85
2021/07/04 04:19:21;;;;;;;20.02;6.30;;;16.60;99.90;;;;;;4843251;29;20054;-83
2021/07/04 04:21:57;;;;;;;26.30;7.80;;;16.60;99.90;;;;;;4842066;29;20054;-87
2021/07/04 04:24:25;;;;;;;16.90;7.68;;;16.70;99.90;;;;;;4840471;29;20061;-85
2021/07/04 04:26:54;;;;;;;19.52;7.15;;;16.70;99.90;;;;;;4828669;29;20058;-85
2021/07/04 04:29:24;;;;;;;18.48;7.95;;;16.60;99.90;;;;;;4845178;29;20059;-84
2021/07/04 04:31:54;;;;;;;15.37;6.53;;;16.70;99.90;;;;;;4826107;29;20055;-85
2021/07/04 04:34:27;;;;;;;20.50;7.53;;;16.70;99.90;;;;;;4841214;29;20057;-85
2021/07/04 04:37:00;;;;;;;24.67;6.88;;;16.80;99.90;;;;;;4833280;29;20513;-83
2021/07/04 04:39:30;;;;;;;19.10;6.45;;;16.80;99.90;;;;;;4842344;29;20062;-85
2021/07/04 04:42:01;;;;;;;16.40;6.60;;;16.80;99.90;;;;;;4857740;29;20065;-85
2021/07/04 04:44:38;;;;;;;16.85;6.78;;;16.80;99.90;;;;;;4830236;29;20065;-84
2021/07/04 04:47:10;;;;;;;17.83;7.30;;;16.80;99.90;;;;;;4842746;29;20046;-84
2021/07/04 04:49:43;;;;;;;24.45;7.30;;;16.90;99.90;;;;;;4840457;29;20050;-86
2021/07/04 04:52:12;;;;;;;15.60;6.63;;;16.90;99.90;;;;;;4841314;29;20429;-85
2021/07/04 04:54:40;;;;;;;17.88;6.63;;;16.90;99.90;;;;;;4845100;29;20046;-85
2021/07/04 04:57:09;;;;;;;15.27;6.97;;;16.90;99.90;;;;;;4828151;29;20054;-86
2021/07/04 04:59:39;;;;;;;22.90;8.10;;;17.00;99.90;;;;;;4859768;29;20054;-84
2021/07/04 05:02:10;;;;;;;13.35;5.95;;;17.00;99.90;;;;;;4825810;29;20157;-86
2021/07/04 05:04:45;;;;;;;17.50;6.63;;;17.00;99.90;;;;;;4826753;29;20058;-85
2021/07/04 05:07:15;;;;;;;12.48;5.55;;;17.10;99.90;;;;;;4823759;29;20050;-85
2021/07/04 05:09:45;;;;;;;17.30;6.57;;;17.20;99.90;;;;;;4828062;29;20054;-84
2021/07/04 05:12:15;;;;;;;19.40;6.28;;;17.10;99.90;;;;;;4843149;29;20046;-85
2021/07/04 05:14:44;;;;;;;14.75;5.47;;;17.10;99.90;;;;;;4834292;29;20054;-86
2021/07/04 05:17:12;;;;;;;15.60;5.50;;;17.10;99.90;;;;;;4843456;29;20064;-84
2021/07/04 05:19:41;;;;;;;16.23;6.03;;;17.20;99.90;;;;;;4842602;29;20049;-86
2021/07/04 05:22:09;;;;;;;21.95;7.35;;;17.20;99.90;;;;;;4841207;29;20057;-85
2021/07/04 05:24:37;;;;;;;18.17;6.22;;;17.20;99.90;;;;;;4841645;29;20068;-84
2021/07/04 05:27:07;;;;;;;16.50;5.57;;;17.20;99.90;;;;;;4831376;29;20054;-85
2021/07/04 05:29:36;;;;;;;21.30;6.95;;;17.30;99.90;;;;;;4841928;29;20078;-84
2021/07/04 05:32:04;;;;;;;19.80;6.43;;;17.30;99.90;;;;;;4842332;29;20054;-86
2021/07/04 05:34:34;;;;;;;15.25;4.90;;;17.40;99.90;;;;;;4826304;29;20530;-84
2021/07/04 05:37:04;;;;;;;15.25;5.18;;;17.50;99.90;;;;;;4839207;29;20552;-85
2021/07/04 05:39:35;;;;;;;16.48;5.57;;;17.50;99.90;;;;;;4841036;29;20057;-84
2021/07/04 05:42:03;;;;;;;14.65;4.85;;;17.60;99.90;;;;;;4855332;29;20053;-86
2021/07/04 05:44:34;;;;;;;20.08;4.88;;;17.70;99.90;;;;;;4839549;29;20050;-88
2021/07/04 05:47:02;;;;;;;15.73;4.57;;;17.80;99.90;;;;;;4855796;29;20053;-85
2021/07/04 05:49:35;;;;;;;16.35;5.40;;;17.90;99.90;;;;;;4842207;29;20069;-85
2021/07/04 05:52:06;;;;;;;17.60;5.18;;;18.00;99.90;;;;;;4854527;29;20042;-86
2021/07/04 05:54:37;;;;;;;13.75;4.38;;;18.20;99.90;;;;;;4824779;29;20406;-85
2021/07/04 05:57:06;;;;;;;13.63;4.55;;;18.20;99.90;;;;;;4839614;29;20061;-85
2021/07/04 05:59:35;;;;;;;11.52;4.55;;;18.20;99.90;;;;;;4856153;29;20054;-85
2021/07/04 06:02:03;;;;;;;12.13;4.20;;;18.00;99.90;;;;;;4839761;29;20045;-85
2021/07/04 06:04:33;;;;;;;11.70;4.72;;;18.30;99.90;;;;;;4839482;29;20057;-84
2021/07/04 06:07:03;;;;;;;10.35;4.30;;;18.30;99.90;;;;;;4824930;29;20058;-86
2021/07/04 06:09:32;;;;;;;13.52;4.22;;;18.20;99.90;;;;;;4839744;29;20054;-85
2021/07/04 06:12:04;;;;;;;11.93;4.35;;;18.20;99.90;;;;;;4841558;29;20054;-85
2021/07/04 06:14:37;;;;;;;17.83;4.57;;;18.20;99.90;;;;;;4839741;29;20050;-85
2021/07/04 06:17:06;;;;;;;10.40;3.83;;;18.20;99.90;;;;;;4839757;29;20058;-85
2021/07/04 06:19:36;;;;;;;8.07;3.63;;;18.10;99.90;;;;;;4839752;29;20058;-85
2021/07/04 06:22:04;;;;;;;11.25;4.05;;;18.00;99.90;;;;;;4841071;29;20058;-84
2021/07/04 06:24:33;;;;;;;12.82;4.45;;;18.00;99.90;;;;;;4843766;29;20060;-86
2021/07/04 06:27:04;;;;;;;11.43;4.38;;;18.00;99.90;;;;;;4843079;29;20061;-83
2021/07/04 06:29:32;;;;;;;14.98;4.18;;;18.00;99.90;;;;;;4834540;29;20076;-86
2021/07/04 06:32:03;;;;;;;17.52;5.82;;;18.00;99.90;;;;;;4839075;29;20058;-86
2021/07/04 06:34:30;;;;;;;10.85;3.92;;;17.90;99.90;;;;;;4824254;29;20057;-86
2021/07/04 06:36:58;;;;;;;11.88;4.13;;;17.90;99.90;;;;;;4823968;29;20065;-85
2021/07/04 06:39:29;;;;;;;9.13;3.92;;;17.90;99.90;;;;;;4840917;29;20065;-84
2021/07/04 06:42:00;;;;;;;11.05;3.83;;;18.00;99.90;;;;;;4840279;29;20049;-85
2021/07/04 06:44:28;;;;;;;14.07;3.58;;;18.00;99.90;;;;;;4839374;29;20061;-86
2021/07/04 06:46:59;;;;;;;10.15;3.50;;;18.00;99.90;;;;;;4826359;29;20061;-85
2021/07/04 06:49:28;;;;;;;17.90;4.72;;;18.00;99.90;;;;;;4829382;29;20061;-85
2021/07/04 06:51:58;;;;;;;9.07;3.38;;;18.00;99.90;;;;;;4826540;29;20054;-84
2021/07/04 06:54:28;;;;;;;13.02;3.40;;;18.10;99.90;;;;;;4840820;29;20054;-85
2021/07/04 06:57:26;;;;;;;12.43;3.83;;;18.10;99.90;;;;;;4827838;29;20056;-84
2021/07/04 06:59:59;;;;;;;9.05;3.40;;;18.20;99.90;;;;;;4840750;29;20061;-85
2021/07/04 07:02:37;;;;;;;6.95;3.00;;;18.30;99.90;;;;;;4839741;29;20057;-84
2021/07/04 07:05:10;;;;;;;3.67;2.08;;;18.30;99.90;;;;;;4840663;29;20053;-85
2021/07/04 07:07:40;;;;;;;6.50;2.55;;;18.30;99.90;;;;;;4855258;29;20049;-85
2021/07/04 07:10:12;;;;;;;3.70;2.10;;;18.30;99.90;;;;;;4855179;29;20057;-86
2021/07/04 07:12:48;;;;;;;9.00;3.30;;;18.20;99.90;;;;;;4840724;29;20057;-86
2021/07/04 07:15:22;;;;;;;5.40;2.72;;;18.20;99.90;;;;;;4840130;29;20046;-85
2021/07/04 07:17:50;;;;;;;9.40;2.75;;;18.10;99.90;;;;;;4838233;29;20481;-86
2021/07/04 07:20:20;;;;;;;7.88;2.83;;;18.00;99.90;;;;;;4838313;29;20061;-84
2021/07/04 07:22:48;;;;;;;4.95;2.33;;;17.90;99.90;;;;;;4854354;29;20050;-85
2021/07/04 07:25:25;;;;;;;5.57;2.45;;;17.90;99.90;;;;;;4840603;29;20053;-84
2021/07/04 07:27:56;;;;;;;8.80;2.70;;;17.90;99.90;;;;;;4824879;29;20513;-85
2021/07/04 07:30:25;;;;;;;9.48;3.33;;;17.70;99.90;;;;;;4821370;29;20064;-84
2021/07/04 07:32:53;;;;;;;10.48;3.05;;;17.60;99.90;;;;;;4838011;29;20062;-84
2021/07/04 07:35:21;;;;;;;7.32;2.88;;;17.50;99.90;;;;;;4838185;29;20057;-84
2021/07/04 07:38:01;;;;;;;4.57;1.70;;;17.40;99.90;;;;;;4823258;29;20038;-86
2021/07/04 07:40:36;;;;;;;3.83;1.60;;;17.30;99.90;;;;;;4837791;29;20089;-85
2021/07/04 07:43:04;;;;;;;4.88;1.73;;;17.30;99.90;;;;;;4826269;29;20069;-86
2021/07/04 07:45:32;;;;;;;6.25;1.83;;;17.20;99.90;;;;;;4842628;29;20046;-86
2021/07/04 07:48:06;;;;;;;3.55;1.75;;;17.10;99.90;;;;;;4842590;29;20711;-87
2021/07/04 07:50:48;;;;;;;2.65;1.67;;;17.10;99.90;;;;;;4823943;29;20050;-89
2021/07/04 07:53:19;;;;;;;7.63;2.55;;;17.10;99.90;;;;;;4842702;29;20050;-87
2021/07/04 07:55:49;;;;;;;3.35;1.70;;;17.10;99.90;;;;;;4857238;29;20056;-87
2021/07/04 07:58:18;;;;;;;4.18;1.83;;;17.20;99.90;;;;;;4843915;29;20069;-87
2021/07/04 08:00:53;;;;;;;3.95;1.52;;;17.20;99.90;;;;;;4854884;29;20053;-85
2021/07/04 08:03:22;;;;;;;4.32;2.25;;;17.20;99.90;;;;;;4830847;29;20084;-86
2021/07/04 08:05:52;;;;;;;;;;;17.30;99.90;;;;;;4832517;29;20077;-85
2021/07/04 08:08:21;;;;;;;7.90;2.53;;;17.30;99.90;;;;;;4845495;29;20237;-90
2021/07/04 08:10:49;;;;;;;3.13;1.60;;;17.40;99.90;;;;;;4848857;29;20065;-87
2021/07/04 08:13:21;;;;;;;5.35;1.48;;;17.50;99.90;;;;;;4844776;29;20046;-87
2021/07/04 08:15:49;;;;;;;3.55;1.05;;;17.50;99.90;;;;;;4841082;29;20058;-84
2021/07/04 08:18:17;;;;;;;4.43;1.10;;;17.60;99.90;;;;;;4848723;29;20050;-88
2021/07/04 08:20:45;;;;;;;2.70;1.52;;;17.70;99.90;;;;;;4863100;29;20078;-86
2021/07/04 08:23:16;;;;;;;2.63;0.98;;;17.80;99.90;;;;;;4850272;29;20061;-88
2021/07/04 08:25:45;;;;;;;1.58;0.85;;;17.90;99.90;;;;;;4837570;29;20062;-88
2021/07/04 08:28:13;;;;;;;0.82;0.82;;;18.00;99.90;;;;;;4831738;29;20053;-85
2021/07/04 08:30:41;;;;;;;2.20;1.20;;;18.10;99.90;;;;;;4852792;29;20065;-83
2021/07/04 08:33:12;;;;;;;2.47;0.90;;;18.20;99.90;;;;;;4862574;29;20054;-84
2021/07/04 08:35:41;;;;;;;3.08;1.48;;;18.40;99.90;;;;;;4853796;29;20050;-90
2021/07/04 08:38:10;;;;;;;1.98;1.05;;;18.50;99.90;;;;;;4852806;29;20057;-87
2021/07/04 08:41:03;;;;;;;2.00;0.98;;;18.70;99.90;;;;;;4840465;29;20060;-91
2021/07/04 08:43:35;;;;;;;2.53;1.33;;;18.80;99.90;;;;;;4849291;29;20048;-84
2021/07/04 08:46:05;;;;;;;2.58;1.30;;;18.90;99.90;;;;;;4851742;29;20224;-88
2021/07/04 08:48:35;;;;;;;3.28;1.48;;;19.00;99.90;;;;;;4831997;29;20094;-85
2021/07/04 08:51:09;;;;;;;2.92;1.10;;;19.10;99.90;;;;;;4846995;29;20068;-85
2021/07/04 08:53:39;;;;;;;4.75;1.27;;;19.30;99.90;;;;;;4847012;29;20524;-87
2021/07/04 08:56:10;;;;;;;2.80;1.45;;;19.40;99.90;;;;;;4846687;29;20038;-86
2021/07/04 08:58:38;;;;;;;3.93;1.47;;;19.50;99.90;;;;;;4844927;29;20069;-85
2021/07/04 09:01:28;;;;;;;5.03;1.67;;;19.50;99.90;;;;;;4817225;29;20054;-85
2021/07/04 09:04:11;;;;;;;3.78;1.80;;;19.60;99.90;;;;;;4846928;29;20060;-88
2021/07/04 09:06:46;;;;;;;5.25;1.83;;;19.70;99.90;;;;;;4837087;29;20054;-84
2021/07/04 09:09:25;;;;;;;3.58;1.65;;;19.60;99.90;;;;;;4857481;29;20073;-86
2021/07/04 09:12:02;;;;;;;5.00;1.77;;;19.40;99.90;;;;;;4852923;29;20057;-86
2021/07/04 09:14:43;;;;;;;2.30;1.25;;;19.90;99.90;;;;;;4844577;29;20046;-84
2021/07/04 09:17:34;;;;;;;5.70;1.92;;;19.90;99.90;;;;;;4842680;29;20060;-87
2021/07/04 09:20:07;;;;;;;8.57;3.15;;;20.00;99.90;;;;;;4855861;29;20061;-85
2021/07/04 09:22:38;;;;;;;5.68;1.70;;;20.10;99.90;;;;;;4847905;29;20054;-86
2021/07/04 09:25:08;;;;;;;;;;;20.20;99.90;;;;;;4843423;29;20056;-86
2021/07/04 09:27:36;;;;;;;5.72;1.52;;;20.30;99.90;;;;;;4844465;29;19928;-85
2021/07/04 09:30:12;;;;;;;4.88;1.63;;;20.30;99.90;;;;;;4839116;29;20548;-87
2021/07/04 09:32:48;;;;;;;7.18;1.45;;;20.40;99.90;;;;;;4837613;29;20061;-88
2021/07/04 09:35:19;;;;;;;4.32;1.63;;;20.40;99.90;;;;;;4838505;29;20476;-89
2021/07/04 09:37:51;;;;;;;4.75;1.60;;;20.40;99.90;;;;;;4841400;29;20062;-86
2021/07/04 09:40:25;;;;;;;2.85;1.50;;;20.40;99.90;;;;;;4830011;29;20057;-88
2021/07/04 09:42:58;;;;;;;6.55;1.38;;;20.50;99.90;;;;;;4833244;29;20046;-87
2021/07/04 09:45:53;;;;;;;4.13;1.48;;;20.50;99.90;;;;;;4841809;29;20046;-87
2021/07/04 09:48:30;;;;;;;5.07;1.60;;;20.50;99.90;;;;;;4842513;29;20057;-87
2021/07/04 09:51:11;;;;;;;3.78;1.88;;;20.40;99.90;;;;;;4843404;29;20060;-85
2021/07/04 09:53:51;;;;;;;3.63;1.75;;;20.40;99.90;;;;;;4845000;29;20042;-86
2021/07/04 09:56:28;;;;;;;4.97;1.75;;;20.30;99.90;;;;;;4857235;29;20402;-85
2021/07/04 09:59:01;;;;;;;3.33;2.03;;;20.30;99.90;;;;;;4843456;29;20077;-86
2021/07/04 10:01:42;;;;;;;2.95;1.48;;;20.30;99.90;;;;;;4837057;29;20080;-87
2021/07/04 10:04:31;;;;;;;4.18;1.95;;;20.80;99.90;;;;;;4842598;29;20050;-87
2021/07/04 10:07:04;;;;;;;2.80;1.65;;;20.60;99.90;;;;;;4831567;29;20061;-85
2021/07/04 10:09:34;;;;;;;5.35;1.77;;;20.70;99.90;;;;;;4845482;29;20058;-86
2021/07/04 10:12:06;;;;;;;7.32;3.25;;;20.80;99.90;;;;;;4842382;29;20056;-88
2021/07/04 10:14:37;;;;;;;4.60;1.70;;;20.80;99.90;;;;;;4826460;29;20045;-87
2021/07/04 10:17:05;;;;;;;6.50;1.70;;;20.80;99.90;;;;;;4842099;29;20064;-86
2021/07/04 10:19:34;;;;;;;6.80;2.00;;;20.90;99.90;;;;;;4842337;29;20054;-86
2021/07/04 10:22:04;;;;;;;6.07;1.60;;;20.90;99.90;;;;;;4843570;29;20394;-87
2021/07/04 10:24:32;;;;;;;6.07;1.80;;;20.90;99.90;;;;;;4858539;29;20072;-85
2021/07/04 10:27:04;;;;;;;3.38;2.05;;;21.00;99.90;;;;;;4841467;29;20042;-86
2021/07/04 10:29:32;;;;;;;3.97;1.80;;;21.10;99.90;;;;;;4839486;29;20045;-85
2021/07/04 10:32:09;;;;;;;5.95;1.95;;;21.00;99.90;;;;;;4819566;29;20069;-85
2021/07/04 10:34:49;;;;;;;2.20;1.60;;;21.00;99.90;;;;;;4838711;29;20066;-85
2021/07/04 10:37:33;;;;;;;6.90;2.53;;;21.00;99.90;;;;;;4841700;29;20509;-87
2021/07/04 10:40:19;;;;;;;9.68;2.13;;;21.10;99.90;;;;;;4837492;29;20054;-87
2021/07/04 10:42:47;;;;;;;7.60;2.03;;;21.10;99.90;;;;;;4840625;29;20061;-86
2021/07/04 10:45:32;;;;;;;2.95;1.67;;;21.10;99.90;;;;;;4838254;29;20046;-87
2021/07/04 10:48:55;;;;;;;3.53;1.58;;;21.00;99.90;;;;;;4855280;29;20058;-85
2021/07/04 10:51:24;;;;;;;4.53;2.00;;;21.00;99.90;;;;;;4844035;29;20536;-85
2021/07/04 10:53:59;;;;;;;3.13;1.55;;;21.10;99.90;;;;;;4824990;29;20053;-86
2021/07/04 10:57:00;;;;;;;5.72;2.22;;;21.30;99.90;;;;;;4833949;29;20067;-86
2021/07/04 10:59:32;;;;;;;5.22;1.80;;;21.40;99.90;;;;;;4835364;29;20069;-86
2021/07/04 11:02:02;;;;;;;7.55;1.70;;;21.40;99.90;;;;;;4827416;29;20064;-86
2021/07/04 11:04:32;;;;;;;22.63;4.25;;;21.40;99.90;;;;;;4827546;29;20066;-85
2021/07/04 11:07:06;;;;;;;6.13;2.42;;;21.40;99.90;;;;;;4829017;29;20050;-85
2021/07/04 11:10:09;;;;;;;6.18;2.63;;;21.40;99.90;;;;;;4820019;29;20411;-87
2021/07/04 11:12:40;;;;;;;10.98;2.75;;;21.50;99.90;;;;;;4837214;29;20050;-87
2021/07/04 11:15:11;;;;;;;2.15;1.38;;;21.40;99.90;;;;;;4853747;29;20502;-87
2021/07/04 11:17:59;;;;;;;2.45;1.58;;;21.30;99.90;;;;;;4831704;29;20069;-86
2021/07/04 11:20:40;;;;;;;3.25;1.52;;;21.00;99.90;;;;;;4845592;29;20070;-86
2021/07/04 11:23:25;;;;;;;4.53;3.40;;;20.90;99.90;;;;;;4845987;29;20439;-87
2021/07/04 11:25:56;;;;;;;3.47;1.65;;;20.60;99.90;;;;;;4831015;29;20057;-88
2021/07/04 11:28:31;;;;;;;3.70;1.80;;;20.50;99.90;;;;;;4844378;29;20071;-87
2021/07/04 11:31:13;;;;;;;4.60;1.45;;;20.50;99.90;;;;;;4840356;29;20057;-88
2021/07/04 11:33:44;;;;;;;3.40;2.10;;;20.60;99.90;;;;;;4853594;29;20661;-85
2021/07/04 11:36:15;;;;;;;4.82;3.03;;;20.60;99.90;;;;;;4856139;29;20061;-87
2021/07/04 11:39:01;;;;;;;3.80;1.90;;;20.70;99.90;;;;;;4841762;29;20061;-87
2021/07/04 11:41:45;;;;;;;3.72;1.55;;;20.90;99.90;;;;;;4829230;29;20058;-85
2021/07/04 11:44:24;;;;;;;3.10;1.40;;;21.20;99.90;;;;;;4843307;29;20062;-87
2021/07/04 11:46:53;;;;;;;4.68;1.48;;;21.50;99.90;;;;;;4831136;29;20061;-86
2021/07/04 11:49:26;;;;;;;3.33;1.27;;;21.60;99.90;;;;;;4847960;29;20054;-86
2021/07/04 11:52:01;;;;;;;8.88;1.70;;;21.80;99.90;;;;;;4840668;29;20058;-85
2021/07/04 11:54:34;;;;;;;3.88;1.42;;;21.90;99.90;;;;;;4838775;29;20049;-85
2021/07/04 11:59:58;;;;;;;4.03;1.10;;;22.10;99.90;;;;;;4838617;29;20053;-87
2021/07/04 12:02:51;;;;;;;4.47;1.20;;;22.30;99.90;;;;;;4843263;29;20081;-85
2021/07/04 12:05:19;;;;;;;2.63;1.58;;;22.30;99.90;;;;;;4835516;29;20502;-85
2021/07/04 12:07:56;;;;;;;5.65;1.10;;;22.30;99.90;;;;;;4837650;29;20053;-85
2021/07/04 12:10:28;;;;;;;1.83;1.13;;;22.20;99.90;;;;;;4838687;29;20049;-85
2021/07/04 12:12:56;;;;;;;1.83;1.08;;;22.10;99.90;;;;;;4834229;29;20408;-87
2021/07/04 12:15:25;;;;;;;1.75;1.08;;;22.30;99.90;;;;;;4854482;29;20042;-86
2021/07/04 12:17:53;;;;;;;3.35;1.48;;;22.40;99.90;;;;;;4813079;29;20069;-87
2021/07/04 12:20:24;;;;;;;3.75;1.20;;;22.40;99.90;;;;;;4836728;29;20057;-86
2021/07/04 12:22:56;;;;;;;4.15;1.58;;;22.50;99.90;;;;;;4839755;29;20057;-86
2021/07/04 12:25:27;;;;;;;5.95;1.15;;;22.50;99.90;;;;;;4837729;29;20057;-86
2021/07/04 12:28:02;;;;;;;4.80;1.45;;;22.50;99.90;;;;;;4819085;29;20069;-86
2021/07/04 12:30:42;;;;;;;4.20;1.00;;;22.40;99.90;;;;;;4834971;29;20057;-84
2021/07/04 12:33:13;;;;;;;2.08;0.73;;;22.30;99.90;;;;;;4835589;29;20668;-84
2021/07/04 12:35:45;;;;;;;2.80;0.73;;;22.30;99.90;;;;;;4833548;29;20041;-85
2021/07/04 12:38:33;;;;;;;5.28;1.08;;;22.30;99.90;;;;;;4822299;29;20054;-84
2021/07/04 12:41:04;;;;;;;3.95;1.27;;;22.40;99.90;;;;;;4836869;29;20046;-84
2021/07/04 12:43:43;;;;;;;1.63;0.73;;;22.70;99.90;;;;;;4828175;29;20069;-85
2021/07/04 12:46:18;;;;;;;1.77;0.57;;;22.90;99.90;;;;;;4837429;29;20046;-86
2021/07/04 12:48:48;;;;;;;3.25;0.60;;;23.10;99.90;;;;;;4853950;29;20065;-86
2021/07/04 12:51:25;;;;;;;3.00;1.02;;;23.30;99.90;;;;;;4841042;29;20046;-86
2021/07/04 12:53:54;;;;;;;3.42;0.90;;;23.40;99.90;;;;;;4841185;29;20072;-85
2021/07/04 12:56:33;;;;;;;1.23;1.05;;;23.50;99.90;;;;;;4841782;29;20053;-86
2021/07/04 12:59:07;;;;;;;3.92;0.70;;;23.70;99.90;;;;;;4838690;29;20062;-85
2021/07/04 13:01:36;;;;;;;1.90;1.00;;;23.80;99.90;;;;;;4854472;29;20076;-87
2021/07/04 13:04:14;;;;;;;3.33;0.70;;;24.10;99.90;;;;;;4839056;29;20057;-86
2021/07/04 13:07:03;;;;;;;2.85;1.02;;;24.20;99.90;;;;;;4830508;29;20046;-85
2021/07/04 13:09:54;;;;;;;2.95;0.95;;;24.40;99.90;;;;;;4827159;29;20453;-86
2021/07/04 13:12:26;;;;;;;3.25;1.00;;;24.60;99.90;;;;;;4831669;29;20049;-85
2021/07/04 13:15:02;;;;;;;2.38;0.90;;;24.80;99.90;;;;;;4824140;29;20061;-83
2021/07/04 13:17:46;;;;;;;4.45;0.98;;;25.00;99.90;;;;;;4853555;29;20732;-89